Blaine, Ohio
Current Conditions -  °F | °C
As of 1:41 PM on Thursday 27 Nov 2014 (Local Time) from KHLG Reporting Station
Light Snow Light Snow  
Wind Chill: 26°   Ceiling: 600
Heat Index: 32°   Visibility: 0.75mi
Dew Point: 30°   Wind: 7mph
Humidity: 92%   Direction: 290°WNW
Pressure: 30.09"   Gusts: NA
Location:  40.07°N, 80.82°W
Report Text: KHLG 271841Z 29006KT 3/4SM R03/4000VP6000FT -SN BR BKN006 OVC011 00/M01 A3009 RMK AO2 CIG 003V008 P0001 T00001011
Loading
Personal Weather Stations






























Interactive Weather Map New forecast layout! Learn more

10-Day Weather Forecast

Advertisements
Track Severe Weather on mobile